KBKL/BKL METAR and TAF weather

Enter ICAO airport designator
Station Type Date Time Source
KBKL METAR 2019/10/20 18:53 UTC NOAA

KBKL 201853Z 32005KT 10SM FEW060 17/11 A2988 RMK AO2 SLP117 T01720106 $


Station Type Date Time Source
KBKL Decoded METAR 2019/10/20 18:53 UTC NOAA

CLEVELAND BURKE LAKEFRONT, OH, United States (KBKL) 41-32N 81-40W 184M
Oct 20, 2019 - 02:53 PM EDT / 2019.10.20 1853 UTC
Wind: from the NW (320 degrees) at 6 MPH (5 KT):0
Visibility: 10 mile(s):0
Sky conditions: mostly clear
Temperature: 63.0 F (17.2 C)
Dew Point: 51.1 F (10.6 C)
Relative Humidity: 65%
Pressure (altimeter): 29.88 in. Hg (1011 hPa)
ob: KBKL 201853Z 32005KT 10SM FEW060 17/11 A2988 RMK AO2 SLP117 T01720106
cycle: 19

Station Type Date Time Source
KBKL TAF UTC NOAA

Error!

Example: see airport list